Time;durP1;ratioP1;P1;durP2;ratioP2;P2;SDS_P1;SDS_P2;PMS_P1;PMS_P2;Temp;Humidity;BMP_temperature;BMP_pressure;BME280_temperature;BME280_humidity;BME280_pressure;Samples;Min_cycle;Max_cycle;Signal;HPM_P1;HPM_P2
2023/12/09 00:02:04;;;;;;;;;;;;;;;7.24;70.50;100903.09;5061606;28;19917;-85
2023/12/09 00:04:55;;;;;;;;;;;;;;;7.27;71.15;100899.81;5058427;28;19917;-85
2023/12/09 00:07:45;;;;;;;;;;;;;;;7.38;70.82;100902.38;5064370;28;19916;-85
2023/12/09 00:10:32;;;;;;;;;;;;;;;7.40;70.33;100900.22;5059755;28;19916;-86
2023/12/09 00:13:21;;;;;;;;;;;;;;;7.45;70.61;100906.38;5059416;28;19939;-86
2023/12/09 00:16:13;;;;;;;;;;;;;;;7.46;70.96;100918.81;5071101;28;19921;-86
2023/12/09 00:19:05;;;;;;;;;;;;;;;7.49;70.24;100912.00;5056856;28;19916;-85
2023/12/09 00:21:55;;;;;;;;;;;;;;;7.34;70.32;100915.69;5058535;28;20377;-86
2023/12/09 00:24:50;;;;;;;;;;;;;;;7.36;70.78;100913.53;5063913;28;19913;-85
2023/12/09 00:27:42;;;;;;;;;;;;;;;7.48;70.74;100915.78;5064212;28;20374;-85
2023/12/09 00:30:34;;;;;;;;;;;;;;;7.46;70.40;100909.88;5057915;28;20394;-86
2023/12/09 00:33:24;;;;;;;;;;;;;;;7.53;69.94;100907.59;5058279;28;20385;-85
2023/12/09 00:36:19;;;;;;;;;;;;;;;7.62;69.92;100903.97;5064013;28;19920;-86
2023/12/09 00:39:11;;;;;;;;;;;;;;;7.71;69.77;100917.69;5064547;28;19917;-85
2023/12/09 00:42:03;;;;;;;;;;;;;;;7.77;69.61;100923.84;5062385;28;20393;-86
2023/12/09 00:44:55;;;;;;;;;;;;;;;7.69;69.31;100912.53;5057390;28;19917;-85
2023/12/09 00:47:47;;;;;;;;;;;;;;;7.66;69.43;100915.84;5063245;28;19912;-85
2023/12/09 00:50:39;;;;;;;;;;;;;;;7.69;69.42;100922.56;5062374;28;19917;-85
2023/12/09 00:53:26;;;;;;;;;;;;;;;7.68;69.57;100932.56;5059186;28;19917;-85
2023/12/09 00:56:18;;;;;;;;;;;;;;;7.68;69.40;100931.78;5064173;28;19928;-84
2023/12/09 00:59:07;;;;;;;;;;;;;;;7.69;70.09;100928.78;5058924;28;19925;-84
2023/12/09 01:01:59;;;;;;;;;;;;;;;7.73;69.84;100927.09;5075627;28;20301;-84
2023/12/09 01:04:51;;;;;;;;;;;;;;;7.64;69.80;100928.03;5064527;28;19913;-85
2023/12/09 01:07:43;;;;;;;;;;;;;;;7.61;69.71;100918.63;5064538;28;19917;-85
2023/12/09 01:10:30;;;;;;;;;;;;;;;7.66;69.38;100918.56;5060454;28;19920;-85
2023/12/09 01:13:19;;;;;;;;;;;;;;;7.79;69.52;100929.75;5059538;28;19920;-85
2023/12/09 01:16:11;;;;;;;;;;;;;;;7.84;69.26;100927.78;5063675;28;19921;-84
2023/12/09 01:19:01;;;;;;;;;;;;;;;7.72;68.83;100921.97;5060916;28;20370;-84
2023/12/09 01:21:53;;;;;;;;;;;;;;;7.83;68.81;100928.88;5063696;28;19916;-85
2023/12/09 01:24:43;;;;;;;;;;;;;;;7.91;68.49;100938.25;5063963;28;19912;-85
2023/12/09 01:27:34;;;;;;;;;;;;;;;7.88;69.05;100941.53;5063800;28;19917;-85
2023/12/09 01:30:27;;;;;;;;;;;;;;;7.93;68.34;100941.44;5063983;28;19916;-85
2023/12/09 01:33:19;;;;;;;;;;;;;;;7.92;67.91;100948.00;5059772;28;19917;-85
2023/12/09 01:36:12;;;;;;;;;;;;;;;7.81;68.42;100946.50;5060463;28;20429;-85
2023/12/09 01:39:04;;;;;;;;;;;;;;;7.71;68.86;100945.53;5057236;28;19916;-85
2023/12/09 01:41:56;;;;;;;;;;;;;;;7.70;68.67;100941.22;5061170;28;19916;-84
2023/12/09 01:44:46;;;;;;;;;;;;;;;7.73;68.46;100945.25;5066859;28;20555;-84
2023/12/09 01:47:38;;;;;;;;;;;;;;;7.70;68.59;100938.53;5067814;28;20405;-85
2023/12/09 01:50:30;;;;;;;;;;;;;;;7.79;68.57;100944.09;5067828;28;20397;-85
2023/12/09 01:53:20;;;;;;;;;;;;;;;7.82;68.71;100940.00;5062017;28;19921;-84
2023/12/09 01:56:09;;;;;;;;;;;;;;;7.82;68.30;100945.41;5066245;28;19921;-84
2023/12/09 01:59:05;;;;;;;;;;;;;;;7.77;68.35;100951.72;5067808;28;19920;-84
2023/12/09 02:01:55;;;;;;;;;;;;;;;7.74;68.14;100947.66;5061510;28;19917;-84
2023/12/09 02:04:50;;;;;;;;;;;;;;;7.71;68.46;100950.16;5067665;28;20374;-84
2023/12/09 02:07:45;;;;;;;;;;;;;;;7.70;68.44;100949.34;5067459;28;20007;-84
2023/12/09 02:10:34;;;;;;;;;;;;;;;7.78;68.47;100958.72;5062924;28;19917;-85
2023/12/09 02:13:26;;;;;;;;;;;;;;;7.78;68.41;100961.41;5062546;28;19917;-84
2023/12/09 02:16:20;;;;;;;;;;;;;;;7.73;68.94;100965.00;5062415;28;19917;-85
2023/12/09 02:19:12;;;;;;;;;;;;;;;7.66;68.66;100966.47;5066999;28;19920;-84
2023/12/09 02:22:05;;;;;;;;;;;;;;;7.55;69.34;100959.56;5062791;28;19916;-84
2023/12/09 02:24:56;;;;;;;;;;;;;;;7.56;68.55;100961.97;5067427;28;19916;-84
2023/12/09 02:27:50;;;;;;;;;;;;;;;7.58;69.11;100973.28;5064878;28;19916;-84
2023/12/09 02:30:50;;;;;;;;;;;;;;;7.61;69.31;100975.44;5062457;28;19921;-84
2023/12/09 02:33:43;;;;;;;;;;;;;;;7.66;69.17;100972.69;5061572;28;19921;-85
2023/12/09 02:36:33;;;;;;;;;;;;;;;7.63;68.75;100967.00;5066751;28;19924;-85
2023/12/09 02:39:25;;;;;;;;;;;;;;;7.65;68.74;100970.25;5066491;28;19916;-85
2023/12/09 02:42:19;;;;;;;;;;;;;;;7.67;69.14;100973.47;5066254;28;19921;-85
2023/12/09 02:45:12;;;;;;;;;;;;;;;7.63;68.80;100973.25;5067226;28;19917;-83
2023/12/09 02:47:59;;;;;;;;;;;;;;;7.55;68.85;100968.47;5066833;28;19920;-85
2023/12/09 02:50:46;;;;;;;;;;;;;;;7.60;68.63;100962.19;5063807;28;19916;-84
2023/12/09 02:53:38;;;;;;;;;;;;;;;7.52;68.39;100966.31;5061302;28;19916;-84
2023/12/09 02:56:30;;;;;;;;;;;;;;;7.49;68.97;100960.69;5065872;28;19917;-85
2023/12/09 02:59:19;;;;;;;;;;;;;;;7.39;68.82;100960.81;5063904;28;19916;-83
2023/12/09 03:02:09;;;;;;;;;;;;;;;7.38;68.64;100954.59;5065149;28;20317;-85
2023/12/09 03:04:58;;;;;;;;;;;;;;;7.39;69.16;100945.38;5065289;28;19917;-85
2023/12/09 03:07:46;;;;;;;;;;;;;;;7.32;69.40;100939.50;5062671;28;19916;-84
2023/12/09 03:10:37;;;;;;;;;;;;;;;7.34;69.53;100931.94;5060486;28;19916;-84
2023/12/09 03:13:25;;;;;;;;;;;;;;;7.20;69.02;100925.59;5061233;28;19917;-85
2023/12/09 03:16:14;;;;;;;;;;;;;;;7.34;69.11;100929.22;5065636;28;19916;-85
2023/12/09 03:19:03;;;;;;;;;;;;;;;7.41;69.29;100935.09;5065334;28;19917;-85
2023/12/09 03:21:56;;;;;;;;;;;;;;;7.43;69.49;100941.00;5063958;28;19916;-84
2023/12/09 03:24:48;;;;;;;;;;;;;;;7.40;69.66;100946.19;5061650;28;19917;-85
2023/12/09 03:27:35;;;;;;;;;;;;;;;7.42;69.08;100952.09;5066395;28;19917;-85
2023/12/09 03:30:22;;;;;;;;;;;;;;;7.41;69.01;100964.06;5065204;28;19916;-85
2023/12/09 03:33:13;;;;;;;;;;;;;;;7.36;69.28;100978.44;5061422;28;19921;-85
2023/12/09 03:36:11;;;;;;;;;;;;;;;7.31;69.55;100998.22;5065156;28;19917;-85
2023/12/09 03:39:03;;;;;;;;;;;;;;;7.23;69.87;101015.06;5065640;28;20398;-85
2023/12/09 03:41:55;;;;;;;;;;;;;;;7.09;70.02;101000.59;5064688;28;19916;-85
2023/12/09 03:44:47;;;;;;;;;;;;;;;7.18;70.56;100998.09;5065528;28;19913;-85
2023/12/09 03:47:39;;;;;;;;;;;;;;;7.24;69.93;100996.94;5060793;28;19916;-85
2023/12/09 03:50:31;;;;;;;;;;;;;;;7.31;69.66;100986.59;5064171;28;19929;-85
2023/12/09 03:53:20;;;;;;;;;;;;;;;6.79;69.88;100973.84;5060302;28;19928;-84
2023/12/09 03:56:15;;;;;;;;;;;;;;;6.62;70.51;100968.84;5064714;28;19921;-84
2023/12/09 03:59:07;;;;;;;;;;;;;;;6.78;71.15;100978.44;5063001;28;20378;-84
2023/12/09 04:01:57;;;;;;;;;;;;;;;6.71;70.88;100982.56;5061651;28;19917;-84
2023/12/09 04:04:49;;;;;;;;;;;;;;;6.69;71.05;100976.63;5059015;28;19916;-85
2023/12/09 04:07:41;;;;;;;;;;;;;;;6.52;71.36;100974.31;5064642;28;20298;-85
2023/12/09 04:10:33;;;;;;;;;;;;;;;6.57;71.78;100977.00;5060606;28;19921;-85
2023/12/09 04:13:26;;;;;;;;;;;;;;;6.34;71.66;100985.81;5058746;28;19921;-84
2023/12/09 04:16:15;;;;;;;;;;;;;;;6.24;72.81;100988.59;5064640;28;19913;-84
2023/12/09 04:18:59;;;;;;;;;;;;;;;6.14;74.17;100988.63;5064556;28;19921;-84
2023/12/09 04:21:49;;;;;;;;;;;;;;;6.15;73.68;100980.25;5091763;28;19917;-85
2023/12/09 04:24:41;;;;;;;;;;;;;;;6.13;73.87;100987.03;5064361;28;19913;-84
2023/12/09 04:27:32;;;;;;;;;;;;;;;6.30;73.29;100984.72;5064126;28;19921;-85
2023/12/09 04:30:22;;;;;;;;;;;;;;;6.11;72.88;100978.38;5064035;28;19917;-85
2023/12/09 04:33:14;;;;;;;;;;;;;;;5.86;73.76;100987.38;5060254;28;19985;-85
2023/12/09 04:36:06;;;;;;;;;;;;;;;5.95;74.74;100991.97;5057944;28;19916;-85
2023/12/09 04:38:58;;;;;;;;;;;;;;;5.93;74.47;100988.75;5063902;28;19920;-85
2023/12/09 04:41:48;;;;;;;;;;;;;;;5.95;74.81;100983.06;5063158;28;19917;-85
2023/12/09 04:44:37;;;;;;;;;;;;;;;5.92;74.40;100986.31;5063935;28;19913;-85
2023/12/09 04:47:29;;;;;;;;;;;;;;;6.00;74.37;100988.41;5061247;28;19917;-84
2023/12/09 04:50:18;;;;;;;;;;;;;;;6.15;73.76;100971.31;5058861;28;19925;-85
2023/12/09 04:53:10;;;;;;;;;;;;;;;6.07;73.68;100963.84;5039991;28;20394;-84
2023/12/09 04:56:02;;;;;;;;;;;;;;;6.31;73.82;100962.06;5041544;28;19917;-84
2023/12/09 04:58:52;;;;;;;;;;;;;;;6.51;72.85;100951.09;5044297;28;19925;-84
2023/12/09 05:01:44;;;;;;;;;;;;;;;6.42;72.25;100958.19;5044009;28;19921;-85
2023/12/09 05:04:36;;;;;;;;;;;;;;;6.24;73.81;100950.78;5040379;28;19917;-84
2023/12/09 05:07:28;;;;;;;;;;;;;;;5.99;74.52;100941.72;5038170;28;19917;-85
2023/12/09 05:10:22;;;;;;;;;;;;;;;5.99;75.14;100936.31;5051233;28;19916;-85
2023/12/09 05:13:12;;;;;;;;;;;;;;;5.83;76.16;100924.00;5059473;28;20616;-85
2023/12/09 05:16:04;;;;;;;;;;;;;;;5.85;76.16;100929.09;5063877;28;19920;-85
2023/12/09 05:18:53;;;;;;;;;;;;;;;6.07;76.19;100913.34;5063290;28;19925;-85
2023/12/09 05:21:45;;;;;;;;;;;;;;;6.10;75.62;100917.38;5063398;28;19921;-85
2023/12/09 05:24:35;;;;;;;;;;;;;;;6.16;75.05;100908.16;5061083;28;19917;-84
2023/12/09 05:27:27;;;;;;;;;;;;;;;6.12;75.35;100901.72;5048211;28;19917;-85
2023/12/09 05:30:16;;;;;;;;;;;;;;;6.09;75.72;100908.50;5057579;28;19917;-85
2023/12/09 05:33:03;;;;;;;;;;;;;;;5.87;75.79;100906.19;5055226;28;20382;-84
2023/12/09 05:35:55;;;;;;;;;;;;;;;5.79;77.41;100906.72;5052268;28;19921;-84
2023/12/09 05:38:47;;;;;;;;;;;;;;;5.61;79.26;100915.47;5052455;28;19921;-84
2023/12/09 05:41:36;;;;;;;;;;;;;;;5.49;79.03;100912.28;5060923;28;19917;-84
2023/12/09 05:44:28;;;;;;;;;;;;;;;5.41;79.15;100920.94;5052023;28;19917;-85
2023/12/09 05:47:20;;;;;;;;;;;;;;;5.52;79.55;100933.31;5054898;28;20285;-85
2023/12/09 05:50:10;;;;;;;;;;;;;;;5.41;80.83;100946.03;5058310;28;19916;-84
2023/12/09 05:52:59;;;;;;;;;;;;;;;5.20;80.74;100943.66;5060295;28;19916;-85
2023/12/09 05:55:51;;;;;;;;;;;;;;;5.29;81.97;100956.31;5063931;28;19916;-85
2023/12/09 05:58:41;;;;;;;;;;;;;;;5.38;81.56;100959.25;5059333;28;19925;-85
2023/12/09 06:01:33;;;;;;;;;;;;;;;5.39;81.12;100975.16;5058344;28;19921;-85
2023/12/09 06:04:23;;;;;;;;;;;;;;;5.26;81.67;100978.44;5061083;28;19916;-85
2023/12/09 06:07:14;;;;;;;;;;;;;;;5.26;81.88;100988.41;5063377;28;19917;-84
2023/12/09 06:10:06;;;;;;;;;;;;;;;5.22;81.64;100992.72;5056749;28;19921;-84
2023/12/09 06:12:56;;;;;;;;;;;;;;;5.42;82.35;100995.38;5059209;28;19917;-84
2023/12/09 06:15:48;;;;;;;;;;;;;;;5.60;81.26;101009.06;5057950;28;20374;-84
2023/12/09 06:18:40;;;;;;;;;;;;;;;5.72;80.03;101000.69;5060926;28;19921;-84
2023/12/09 06:21:29;;;;;;;;;;;;;;;5.88;78.10;101006.84;5059677;28;19916;-85
2023/12/09 06:24:21;;;;;;;;;;;;;;;5.91;76.66;101003.59;5063798;28;19921;-85
2023/12/09 06:27:13;;;;;;;;;;;;;;;5.77;75.08;101010.63;5062748;28;19917;-85
2023/12/09 06:30:02;;;;;;;;;;;;;;;5.90;74.65;101013.56;5063350;28;19917;-85
2023/12/09 06:32:52;;;;;;;;;;;;;;;6.05;73.78;101011.88;5063370;28;19921;-85
2023/12/09 06:35:44;;;;;;;;;;;;;;;5.93;72.60;101004.94;5066709;28;20571;-85
2023/12/09 06:38:39;;;;;;;;;;;;;;;5.90;72.19;101018.16;5062102;28;19921;-85
2023/12/09 06:41:31;;;;;;;;;;;;;;;5.62;71.44;101010.69;5067122;28;20378;-85
2023/12/09 06:44:23;;;;;;;;;;;;;;;5.67;71.97;101019.56;5067613;28;19917;-85
2023/12/09 06:47:15;;;;;;;;;;;;;;;5.64;71.72;101022.03;5066261;28;19916;-85
2023/12/09 06:50:12;;;;;;;;;;;;;;;5.78;72.04;101028.44;5066083;28;19920;-84
2023/12/09 06:53:04;;;;;;;;;;;;;;;5.63;71.95;101029.31;5061784;28;19920;-85
2023/12/09 06:55:56;;;;;;;;;;;;;;;5.64;71.63;101022.03;5065559;28;19925;-85
2023/12/09 06:58:48;;;;;;;;;;;;;;;5.66;71.48;101019.84;5064464;28;19921;-84
2023/12/09 07:01:40;;;;;;;;;;;;;;;5.65;71.68;101010.94;5060646;28;20394;-85
2023/12/09 07:04:32;;;;;;;;;;;;;;;5.73;71.67;101021.19;5066385;28;19916;-85
2023/12/09 07:07:30;;;;;;;;;;;;;;;5.78;70.94;101040.06;5067135;28;19916;-86
2023/12/09 07:10:19;;;;;;;;;;;;;;;5.55;71.51;101044.16;5061622;28;19917;-85
2023/12/09 07:13:11;;;;;;;;;;;;;;;5.35;72.38;101051.47;5063163;28;20309;-84
2023/12/09 07:16:03;;;;;;;;;;;;;;;5.33;71.91;101049.06;5064524;28;19924;-85
2023/12/09 07:18:58;;;;;;;;;;;;;;;5.37;71.32;101043.94;5059589;28;19921;-84
2023/12/09 07:21:50;;;;;;;;;;;;;;;5.32;70.65;101038.53;5063814;28;19917;-85
2023/12/09 07:24:42;;;;;;;;;;;;;;;4.55;72.67;101045.00;5063004;28;19917;-84
2023/12/09 07:27:32;;;;;;;;;;;;;;;4.81;72.95;101049.34;5061518;28;19924;-84
2023/12/09 07:30:24;;;;;;;;;;;;;;;4.86;72.36;101049.34;5065093;28;20373;-84
2023/12/09 07:33:16;;;;;;;;;;;;;;;4.96;72.30;101053.94;5055715;28;19917;-84
2023/12/09 07:36:15;;;;;;;;;;;;;;;4.87;72.35;101040.19;5063496;28;19917;-85
2023/12/09 07:39:10;;;;;;;;;;;;;;;4.99;72.12;101048.81;5056209;28;19920;-85
2023/12/09 07:41:59;;;;;;;;;;;;;;;4.83;72.39;101054.44;5053990;28;19917;-86
2023/12/09 07:44:51;;;;;;;;;;;;;;;4.35;73.79;101053.84;5079466;28;20325;-84
2023/12/09 07:47:40;;;;;;;;;;;;;;;4.17;74.64;101052.44;5059028;28;19917;-85
2023/12/09 07:50:32;;;;;;;;;;;;;;;4.28;75.44;101051.41;5062133;28;19917;-85
2023/12/09 07:53:22;;;;;;;;;;;;;;;4.30;75.31;101057.34;5054955;28;19921;-85
2023/12/09 07:56:14;;;;;;;;;;;;;;;3.94;75.16;101052.09;5058390;28;19932;-85
2023/12/09 07:59:06;;;;;;;;;;;;;;;4.16;76.42;101056.22;5064203;28;19921;-85
2023/12/09 08:01:58;;;;;;;;;;;;;;;4.28;75.67;101061.34;5063871;28;20381;-85
2023/12/09 08:04:50;;;;;;;;;;;;;;;4.28;76.44;101054.09;5064368;28;19917;-84
2023/12/09 08:07:42;;;;;;;;;;;;;;;4.37;75.99;101053.59;5059357;28;20297;-85
2023/12/09 08:10:31;;;;;;;;;;;;;;;4.46;76.54;101060.06;5059850;28;19921;-85
2023/12/09 08:13:23;;;;;;;;;;;;;;;4.06;77.02;101061.56;5059178;28;20332;-85
2023/12/09 08:16:13;;;;;;;;;;;;;;;4.09;78.29;101061.03;5063474;28;19917;-84
2023/12/09 08:19:02;;;;;;;;;;;;;;;4.24;78.93;101050.31;5063992;28;19920;-85
2023/12/09 08:21:54;;;;;;;;;;;;;;;4.61;77.33;101049.34;5062758;28;19921;-85
2023/12/09 08:24:46;;;;;;;;;;;;;;;5.18;75.64;101049.88;5063920;28;20381;-85
2023/12/09 08:27:36;;;;;;;;;;;;;;;5.04;75.20;101058.78;5054150;28;19917;-87
2023/12/09 08:30:29;;;;;;;;;;;;;;;5.16;74.11;101062.81;5064223;28;19916;-85
2023/12/09 08:33:22;;;;;;;;;;;;;;;5.57;74.63;101060.06;5060545;28;19917;-85
2023/12/09 08:36:14;;;;;;;;;;;;;;;6.12;71.60;101056.41;5056036;28;19921;-85
2023/12/09 08:39:06;;;;;;;;;;;;;;;5.94;72.35;101067.81;5056202;28;20305;-85
2023/12/09 08:41:58;;;;;;;;;;;;;;;6.22;71.76;101071.75;5063373;28;20386;-84
2023/12/09 08:44:48;;;;;;;;;;;;;;;6.23;71.50;101062.56;5061541;28;19920;-85
2023/12/09 08:47:35;;;;;;;;;;;;;;;6.42;70.58;101063.53;5063023;28;19916;-86
2023/12/09 08:50:22;;;;;;;;;;;;;;;6.06;71.00;101052.09;5059245;28;19917;-83
2023/12/09 08:53:17;;;;;;;;;;;;;;;6.08;72.00;101054.53;5058152;28;19921;-85
2023/12/09 08:56:07;;;;;;;;;;;;;;;6.13;71.81;101054.50;5055638;28;19917;-83
2023/12/09 08:58:59;;;;;;;;;;;;;;;6.27;72.27;101077.13;5063645;28;19920;-84
2023/12/09 09:01:50;;;;;;;;;;;;;;;6.46;72.12;101091.59;5063468;28;19917;-85
2023/12/09 09:04:42;;;;;;;;;;;;;;;5.93;74.04;101098.59;5053952;28;19920;-84
2023/12/09 09:07:36;;;;;;;;;;;;;;;5.76;74.62;101101.56;5058835;28;19924;-82
2023/12/09 09:10:28;;;;;;;;;;;;;;;5.84;75.77;101103.69;5061041;28;19916;-83
2023/12/09 09:13:20;;;;;;;;;;;;;;;5.93;75.39;101115.59;5059525;28;19921;-82
2023/12/09 09:16:13;;;;;;;;;;;;;;;5.99;74.91;101121.78;5055889;28;20299;-81
2023/12/09 09:19:08;;;;;;;44.60;26.70;;;;;;;6.19;79.76;101123.63;5069879;28;20412;-79
2023/12/09 09:22:02;;;;;;;29.08;18.05;;;;;;;6.16;78.57;101124.16;5072996;28;20040;-78
2023/12/09 09:24:58;;;;;;;29.73;16.85;;;;;;;6.35;75.74;101127.84;5073113;28;20040;-80
2023/12/09 09:27:52;;;;;;;13.40;7.73;;;;;;;6.32;74.90;101114.91;5071613;28;20413;-80
2023/12/09 09:30:47;;;;;;;13.40;8.63;;;;;;;6.40;74.22;101090.00;5054771;28;20052;-81
2023/12/09 09:33:36;;;;;;;34.17;20.65;;;;;;;6.61;73.42;101080.72;5068808;28;20807;-80
2023/12/09 09:36:31;;;;;;;16.88;10.63;;;;;;;6.72;73.16;101076.03;5073411;28;20413;-81
2023/12/09 09:39:23;;;;;;;16.15;11.02;;;;;;;6.23;75.15;101065.25;5057240;28;20047;-82
2023/12/09 09:42:34;;;;;;;19.23;11.18;;;;;;;6.61;75.45;101064.50;5055628;28;20044;-79
2023/12/09 09:45:32;;;;;;;18.13;11.10;;;;;;;6.49;74.98;101079.44;5073939;28;20051;-80
2023/12/09 09:48:27;;;;;;;16.27;11.20;;;;;;;6.95;75.00;101079.97;5057693;28;20051;-81
2023/12/09 09:51:28;;;;;;;20.83;12.90;;;;;;;7.21;73.06;101084.06;5062922;28;20070;-79
2023/12/09 09:54:29;;;;;;;16.65;12.32;;;;;;;7.67;72.46;101085.22;5054292;28;20060;-80
2023/12/09 09:57:23;;;;;;;18.48;12.00;;;;;;;13.17;56.25;101083.78;5063181;28;20615;-79
2023/12/09 10:00:19;;;;;;;8.68;6.57;;;;;;;17.82;41.24;101080.47;5058124;28;20037;-80
2023/12/09 10:03:13;;;;;;;12.20;8.65;;;;;;;19.70;36.62;101086.47;5056745;28;20047;-80
2023/12/09 10:06:04;;;;;;;11.48;9.13;;;;;;;20.08;35.23;101087.09;5064040;28;20044;-81
2023/12/09 10:08:56;;;;;;;12.00;9.27;;;;;;;21.16;32.94;101079.16;5062468;28;20048;-81
2023/12/09 10:11:50;;;;;;;14.50;10.55;;;;;;;22.07;31.40;101087.59;5066860;28;20052;-81
2023/12/09 10:14:43;;;;;;;16.30;11.63;;;;;;;21.45;33.14;101091.31;5064495;28;20041;-81
2023/12/09 10:17:33;;;;;;;17.13;12.75;;;;;;;21.53;32.00;101081.94;5056086;28;20037;-81
2023/12/09 10:20:25;;;;;;;18.70;12.15;;;;;;;21.60;32.22;101080.03;5065281;28;20063;-79
2023/12/09 10:23:23;;;;;;;18.13;12.35;;;;;;;21.29;32.21;101067.44;5062813;28;20037;-81
2023/12/09 10:26:17;;;;;;;16.60;13.27;;;;;;;21.18;32.38;101060.22;5061451;28;20053;-81
2023/12/09 10:29:07;;;;;;;15.45;9.75;;;;;;;23.02;29.53;101056.84;5080242;28;20040;-81
2023/12/09 10:32:01;;;;;;;11.23;9.70;;;;;;;22.69;30.14;101051.53;5082610;28;20047;-81
2023/12/09 10:34:56;;;;;;;11.15;8.35;;;;;;;24.07;27.93;101037.16;5085916;28;20047;-81
2023/12/09 10:37:54;;;;;;;13.70;9.88;;;;;;;25.80;26.00;101055.09;5083037;28;20520;-81
2023/12/09 10:40:49;;;;;;;13.85;9.05;;;;;;;25.36;25.07;101045.41;5081284;28;20043;-81
2023/12/09 10:43:48;;;;;;;16.33;9.80;;;;;;;26.23;24.56;101041.56;5080926;28;20593;-80
2023/12/09 10:46:43;;;;;;;9.95;8.48;;;;;;;26.58;24.45;101034.78;5059161;28;20524;-81
2023/12/09 10:49:36;;;;;;;11.45;9.23;;;;;;;26.86;23.57;101023.28;5061807;28;20044;-82
2023/12/09 10:52:29;;;;;;;329.10;194.60;;;;;;;26.99;23.34;101027.13;5063261;28;20060;-82
2023/12/09 10:55:21;;;;;;;12.35;8.93;;;;;;;27.33;23.51;101029.81;5061478;28;20045;-81
2023/12/09 10:58:16;;;;;;;8.07;7.18;;;;;;;26.77;23.40;101020.19;5070311;28;20035;-82
2023/12/09 11:01:13;;;;;;;9.35;7.82;;;;;;;26.90;23.44;101015.69;5062687;28;20124;-82
2023/12/09 11:04:03;;;;;;;8.25;6.78;;;;;;;27.94;22.62;101002.47;5073693;28;20409;-81
2023/12/09 11:06:56;;;;;;;9.63;7.30;;;;;;;28.89;21.44;101004.63;5063836;28;20048;-80
2023/12/09 11:09:51;;;;;;;8.43;7.35;;;;;;;30.02;19.66;101013.09;5060636;28;20116;-81
2023/12/09 11:12:49;;;;;;;9.10;7.38;;;;;;;28.25;21.44;101008.72;5064878;28;20060;-81
2023/12/09 11:15:44;;;;;;;9.52;7.93;;;;;;;23.38;27.28;101009.75;5062223;28;20402;-87
2023/12/09 11:18:36;;;;;;;11.32;7.80;;;;;;;18.90;34.76;101004.56;5067531;28;20044;-85
2023/12/09 11:21:33;;;;;;;10.75;8.60;;;;;;;16.92;39.45;101006.94;5059354;28;20536;-84
2023/12/09 11:24:28;;;;;;;13.65;9.43;;;;;;;15.67;43.43;101000.78;5061774;28;20048;-86
2023/12/09 11:27:27;;;;;;;20.08;15.93;;;;;;;14.74;47.79;100999.53;5064540;28;20410;-85
2023/12/09 11:30:40;;;;;;;15.55;9.48;;;;;;;14.29;47.04;100995.84;5046636;28;20049;-87
2023/12/09 11:33:30;;;;;;;10.20;7.45;;;;;;;13.99;47.33;100984.94;5051007;28;20048;-85
2023/12/09 11:36:23;;;;;;;15.18;9.57;;;;;;;13.60;49.90;100990.78;5065753;28;20045;-87
2023/12/09 11:39:18;;;;;;;17.83;12.63;;;;;;;12.82;54.02;100982.00;5058777;28;20124;-84
2023/12/09 11:42:12;;;;;;;13.88;10.10;;;;;;;12.60;55.08;100976.72;5062412;28;20071;-84
2023/12/09 11:45:08;;;;;;;14.13;9.90;;;;;;;12.32;56.52;100982.50;5059099;28;20044;-85
2023/12/09 11:48:03;;;;;;;15.77;10.20;;;;;;;12.22;57.10;100979.28;5064802;28;20051;-85
2023/12/09 11:50:57;;;;;;;20.15;13.48;;;;;;;11.90;58.29;100973.16;5057887;28;20414;-84
2023/12/09 11:54:08;;;;;;;20.23;13.80;;;;;;;11.60;59.00;100965.81;5057028;28;20040;-83
2023/12/09 11:57:00;;;;;;;23.08;14.30;;;;;;;11.65;59.33;100962.16;5055656;28;20037;-82
2023/12/09 11:59:55;;;;;;;22.15;13.98;;;;;;;11.57;59.96;100945.47;5057568;28;20037;-84
2023/12/09 12:02:48;;;;;;;16.50;10.68;;;;;;;11.61;59.90;100933.94;5061210;28;20045;-84
2023/12/09 12:05:37;;;;;;;21.90;13.93;;;;;;;11.53;60.18;100924.63;5059197;28;20041;-84
2023/12/09 12:08:32;;;;;;;20.33;14.15;;;;;;;11.38;60.45;100922.31;5062837;28;20045;-84
2023/12/09 12:11:25;;;;;;;24.40;11.77;;;;;;;10.99;62.26;100920.41;5057425;28;20037;-85
2023/12/09 12:14:17;;;;;;;21.33;13.35;;;;;;;11.13;61.49;100905.59;5058993;28;20040;-84
2023/12/09 12:17:11;;;;;;;20.83;10.10;;;;;;;10.95;61.69;100905.84;5057164;28;20036;-85
2023/12/09 12:20:05;;;;;;;19.33;13.77;;;;;;;10.48;63.69;100894.53;5063340;28;20041;-84
2023/12/09 12:22:57;;;;;;;20.90;13.95;;;;;;;10.25;64.05;100910.03;5061159;28;20040;-85
2023/12/09 12:25:54;;;;;;;20.88;14.35;;;;;;;10.22;64.04;100913.34;5068796;28;20510;-84
2023/12/09 12:28:47;;;;;;;19.27;12.75;;;;;;;10.02;64.12;100908.38;5058024;28;20033;-84
2023/12/09 12:31:42;;;;;;;17.52;13.00;;;;;;;9.70;65.25;100903.13;5063666;28;20418;-84
2023/12/09 12:34:37;;;;;;;22.83;14.00;;;;;;;9.67;65.48;100898.28;5063689;28;20052;-84
2023/12/09 12:37:31;;;;;;;18.27;12.13;;;;;;;9.29;67.34;100897.72;5050713;28;20052;-85
2023/12/09 12:40:23;;;;;;;24.48;15.80;;;;;;;9.32;67.36;100906.06;5060468;28;20044;-85
2023/12/09 12:43:18;;;;;;;23.77;14.15;;;;;;;8.98;67.95;100905.66;5056452;28;20052;-85
2023/12/09 12:46:08;;;;;;;21.73;14.52;;;;;;;8.73;68.51;100903.41;5074950;28;20052;-84
2023/12/09 12:49:03;;;;;;;28.02;15.73;;;;;;;8.58;69.94;100902.53;5059460;28;20040;-85
2023/12/09 12:51:55;;;;;;;24.50;16.58;;;;;;;8.58;70.29;100891.69;5047685;28;20414;-84
2023/12/09 12:54:44;;;;;;;24.88;16.02;;;;;;;8.67;69.70;100882.91;5056551;28;20048;-85
2023/12/09 12:57:42;;;;;;;27.63;15.75;;;;;;;8.70;69.74;100896.66;5085015;28;20040;-85
2023/12/09 13:00:37;;;;;;;26.70;17.05;;;;;;;8.58;70.23;100885.50;5063627;28;20050;-85
2023/12/09 13:03:31;;;;;;;19.27;12.57;;;;;;;8.57;70.18;100894.72;5051674;28;20044;-87
2023/12/09 13:06:21;;;;;;;24.73;16.90;;;;;;;8.45;71.08;100884.34;5050395;28;20052;-83
2023/12/09 13:09:17;;;;;;;27.52;17.55;;;;;;;8.30;71.96;100889.22;5062308;28;20517;-84
2023/12/09 13:12:12;;;;;;;25.88;16.77;;;;;;;8.20;71.72;100890.16;5055939;28;20052;-86
2023/12/09 13:14:59;;;;;;;25.20;15.25;;;;;;;8.17;71.44;100888.03;5067863;28;20051;-86
2023/12/09 13:17:54;;;;;;;24.58;16.65;;;;;;;7.96;72.06;100884.03;5062795;28;20039;-85
2023/12/09 13:20:49;;;;;;;28.75;17.75;;;;;;;8.00;72.17;100882.34;5057165;28;20044;-84
2023/12/09 13:23:41;;;;;;;29.00;17.70;;;;;;;7.99;71.82;100878.00;5056566;28;20094;-86
2023/12/09 13:26:33;;;;;;;30.00;18.52;;;;;;;7.98;72.55;100888.03;5063093;28;20048;-86
2023/12/09 13:29:25;;;;;;;22.52;13.55;;;;;;;7.79;73.64;100872.88;5062553;28;20052;-86
2023/12/09 13:32:18;;;;;;;28.83;17.48;;;;;;;7.81;73.80;100868.81;5061351;28;20048;-87
2023/12/09 13:35:11;;;;;;;29.45;17.92;;;;;;;7.87;73.83;100874.97;5054244;28;20047;-86
2023/12/09 13:38:08;;;;;;;28.25;17.90;;;;;;;7.94;73.93;100869.97;5052565;28;20462;-86
2023/12/09 13:41:03;;;;;;;30.55;19.00;;;;;;;7.81;73.80;100865.28;5063703;28;20520;-86
2023/12/09 13:43:55;;;;;;;34.15;19.92;;;;;;;7.94;73.61;100864.53;5063559;28;20040;-87
2023/12/09 13:46:44;;;;;;;28.63;17.42;;;;;;;8.06;72.85;100867.63;5084480;28;20067;-87
2023/12/09 13:49:39;;;;;;;31.65;18.13;;;;;;;8.18;72.47;100865.25;5081197;28;20047;-87
2023/12/09 13:52:33;;;;;;;33.13;18.80;;;;;;;8.18;72.87;100862.53;5079141;28;20412;-87
2023/12/09 13:55:25;;;;;;;24.63;16.50;;;;;;;8.01;73.16;100875.81;5083259;28;20044;-87
2023/12/09 13:58:20;;;;;;;32.05;18.48;;;;;;;8.00;73.58;100874.22;5080510;28;20043;-88
2023/12/09 14:01:09;;;;;;;30.55;20.08;;;;;;;7.99;73.36;100857.16;5086486;28;20048;-87
2023/12/09 14:04:04;;;;;;;37.08;20.50;;;;;;;7.98;72.64;100854.72;5081707;28;20528;-86
2023/12/09 14:06:57;;;;;;;;;;;;;;;8.03;72.62;100863.59;5081362;28;20048;-87
2023/12/09 14:09:51;;;;;;;36.13;19.83;;;;;;;7.71;74.27;100860.84;5074272;28;19921;-87
2023/12/09 14:12:46;;;;;;;36.30;21.47;;;;;;;7.63;74.23;100848.75;5057400;28;20037;-87
2023/12/09 14:15:34;;;;;;;53.65;23.13;;;;;;;7.72;74.13;100836.16;5060769;28;20045;-87
2023/12/09 14:18:28;;;;;;;35.70;20.23;;;;;;;7.60;74.34;100838.53;5056503;28;20044;-87